createdAt,value
2016-07-13T14:30:43.990Z,21.61
2016-07-13T14:31:43.969Z,21.71
2016-07-13T14:32:43.974Z,21.61
2016-07-13T14:33:43.956Z,21.64
2016-07-13T14:34:43.949Z,21.61
2016-07-13T14:35:43.943Z,21.62
2016-07-13T14:36:43.936Z,21.61
2016-07-13T14:37:43.927Z,21.67
2016-07-13T14:38:43.917Z,21.74
2016-07-13T14:39:43.911Z,21.7
2016-07-13T14:40:43.926Z,21.71
2016-07-13T14:41:43.909Z,21.71
2016-07-13T14:42:43.898Z,21.74
2016-07-13T14:43:43.890Z,21.76
2016-07-13T14:44:43.887Z,21.8
2016-07-13T14:45:43.887Z,21.86
2016-07-13T14:46:43.882Z,21.89
2016-07-13T14:47:43.881Z,21.92
2016-07-13T14:48:43.877Z,21.97
2016-07-13T14:49:43.875Z,21.93
2016-07-13T14:50:43.869Z,21.93
2016-07-13T14:51:43.865Z,21.96
2016-07-13T14:52:43.864Z,22.07
2016-07-13T14:53:43.866Z,22.16
2016-07-13T14:54:43.859Z,22.24
2016-07-13T14:55:44.061Z,22.26
2016-07-13T14:56:44.054Z,22.27
2016-07-13T14:57:43.851Z,22.27
2016-07-13T14:58:43.854Z,22.36
2016-07-13T14:59:43.853Z,22.36
2016-07-13T15:00:43.845Z,22.52
2016-07-13T15:01:43.846Z,22.57
2016-07-13T15:02:43.841Z,22.69
2016-07-13T15:03:43.843Z,22.69
2016-07-13T15:04:43.838Z,22.64
2016-07-13T15:05:43.846Z,22.6
2016-07-13T15:06:43.828Z,22.78
2016-07-13T15:07:43.837Z,22.73
2016-07-13T15:08:43.832Z,22.73
2016-07-13T15:09:43.835Z,22.73
2016-07-13T15:10:43.831Z,22.82
2016-07-13T15:11:43.829Z,22.78
2016-07-13T15:12:43.824Z,22.79
2016-07-13T15:13:43.828Z,22.82
2016-07-13T15:14:43.823Z,22.89
2016-07-13T15:15:43.823Z,22.85
2016-07-13T15:16:43.833Z,22.85
2016-07-13T15:17:43.819Z,22.94
2016-07-13T15:18:43.826Z,22.85
2016-07-13T15:19:43.823Z,22.69
2016-07-13T15:20:43.819Z,22.7
2016-07-13T15:21:43.816Z,22.75
2016-07-13T15:22:43.813Z,22.76
2016-07-13T15:23:43.814Z,22.82
2016-07-13T15:24:43.817Z,22.84
2016-07-13T15:25:44.014Z,22.89
2016-07-13T15:26:43.812Z,22.89
2016-07-13T15:27:43.823Z,22.91
2016-07-13T15:28:43.814Z,22.91
2016-07-13T15:29:43.804Z,23.01
2016-07-13T15:30:43.863Z,23.09
2016-07-13T15:31:43.806Z,23.18
2016-07-13T15:32:43.815Z,23.1
2016-07-13T15:33:43.806Z,23.19
2016-07-13T15:34:43.806Z,23.25
2016-07-13T15:35:43.814Z,23.32
2016-07-13T15:36:43.809Z,23.37
2016-07-13T15:37:43.808Z,23.37
2016-07-13T15:38:43.810Z,23.38
2016-07-13T15:39:43.803Z,23.56
2016-07-13T15:40:43.807Z,23.5
2016-07-13T15:41:43.806Z,23.56
2016-07-13T15:42:43.803Z,23.55
2016-07-13T15:43:43.804Z,23.63
2016-07-13T15:44:43.802Z,23.63
2016-07-13T15:45:43.805Z,23.67
2016-07-13T15:46:43.806Z,23.72
2016-07-13T15:47:43.805Z,23.7
2016-07-13T15:48:43.807Z,23.78
2016-07-13T15:49:43.803Z,23.79
2016-07-13T15:50:44.009Z,23.84
2016-07-13T15:51:43.804Z,23.82
2016-07-13T15:52:43.801Z,23.82
2016-07-13T15:53:43.815Z,23.89
2016-07-13T15:54:43.801Z,23.82
2016-07-13T15:55:43.806Z,23.89
2016-07-13T15:56:44.013Z,23.92
2016-07-13T15:57:43.800Z,23.85
2016-07-13T15:58:43.806Z,23.93
2016-07-13T15:59:43.801Z,23.94
2016-07-13T16:00:43.799Z,23.89
2016-07-13T16:01:43.803Z,23.87
2016-07-13T16:02:43.809Z,23.97
2016-07-13T16:03:43.812Z,23.85
2016-07-13T16:04:43.804Z,24
2016-07-13T16:05:43.807Z,23.96
2016-07-13T16:06:43.809Z,23.93
2016-07-13T16:07:43.813Z,23.93
2016-07-13T16:08:43.807Z,23.93
2016-07-13T16:09:44.232Z,24.02
2016-07-13T16:10:43.812Z,24.03
2016-07-13T16:11:44.123Z,24.09
2016-07-13T16:12:43.810Z,24.12
2016-07-13T16:13:44.016Z,24.15
2016-07-13T16:14:43.810Z,24.12
2016-07-13T16:15:43.816Z,24.08
2016-07-13T16:16:43.815Z,24.18
2016-07-13T16:17:43.813Z,24.12
2016-07-13T16:18:43.819Z,24.09
2016-07-13T16:19:43.810Z,24.09
2016-07-13T16:20:43.822Z,24.22
2016-07-13T16:21:43.816Z,24.17
2016-07-13T16:22:43.819Z,24.19
2016-07-13T16:23:44.025Z,24.21
2016-07-13T16:24:43.833Z,24.15
2016-07-13T16:25:43.825Z,24.21
2016-07-13T16:26:43.824Z,24.22
2016-07-13T16:27:43.825Z,24.18
2016-07-13T16:28:43.822Z,24.19
2016-07-13T16:29:43.831Z,24.33
2016-07-13T16:30:43.831Z,24.34
2016-07-13T16:31:43.826Z,24.29
2016-07-13T16:32:43.833Z,24.32
2016-07-13T16:33:43.832Z,24.22
2016-07-13T16:34:43.825Z,24.3
2016-07-13T16:35:43.833Z,24.33
2016-07-13T16:36:43.835Z,24.3
2016-07-13T16:37:43.830Z,24.34
2016-07-13T16:38:43.837Z,24.3
2016-07-13T16:39:43.838Z,24.19
2016-07-13T16:40:43.840Z,24.3
2016-07-13T16:41:43.829Z,24.22
2016-07-13T16:42:43.842Z,24.22
2016-07-13T16:43:44.041Z,24.29
2016-07-13T16:44:43.834Z,24.27
2016-07-13T16:45:43.843Z,24.29
2016-07-13T16:46:43.839Z,24.22
2016-07-13T16:47:43.847Z,24.27
2016-07-13T16:48:44.054Z,24.21
2016-07-13T16:49:43.842Z,24.22
2016-07-13T16:50:43.845Z,24.22
2016-07-13T16:51:43.852Z,24.19
2016-07-13T16:52:43.846Z,24.21
2016-07-13T16:53:43.850Z,24.27
2016-07-13T16:54:43.848Z,24.17
2016-07-13T16:55:43.856Z,24.18
2016-07-13T16:56:43.857Z,24.21
2016-07-13T16:57:43.857Z,24.22
2016-07-13T16:58:43.858Z,24.18
2016-07-13T16:59:43.870Z,24.19
2016-07-13T17:00:43.855Z,24.3
2016-07-13T17:01:43.855Z,24.18
2016-07-13T17:02:43.856Z,24.22
2016-07-13T17:03:43.864Z,24.24
2016-07-13T17:04:43.868Z,24.22
2016-07-13T17:05:44.063Z,24.18
2016-07-13T17:06:43.870Z,24.19
2016-07-13T17:07:43.873Z,24.19
2016-07-13T17:08:43.862Z,24.21
2016-07-13T17:09:43.869Z,24.17
2016-07-13T17:10:43.872Z,24.19
2016-07-13T17:11:43.869Z,24.17
2016-07-13T17:12:43.875Z,24.24
2016-07-13T17:13:43.873Z,24.21
2016-07-13T17:14:43.869Z,24.15
2016-07-13T17:15:43.870Z,24.22
2016-07-13T17:16:43.870Z,24.21
2016-07-13T17:17:44.278Z,24.26
2016-07-13T17:18:43.959Z,24.21
2016-07-13T17:19:43.970Z,24.15
2016-07-13T17:20:43.965Z,24.14
2016-07-13T17:21:43.983Z,24.18
2016-07-13T17:22:43.979Z,24.21
2016-07-13T17:23:43.990Z,24.17
2016-07-13T17:24:44.002Z,24.19
2016-07-13T17:25:44.103Z,24.18
2016-07-13T17:26:44.010Z,24.15
2016-07-13T17:27:44.030Z,24.18
2016-07-13T17:28:43.893Z,24.24
2016-07-13T17:29:43.892Z,24.19
2016-07-13T17:30:43.893Z,24.24
2016-07-13T17:31:43.888Z,24.22
2016-07-13T17:32:43.890Z,24.18
2016-07-13T17:33:43.897Z,24.26
2016-07-13T17:34:44.087Z,24.18
2016-07-13T17:35:43.899Z,24.15
2016-07-13T17:36:43.896Z,24.24
2016-07-13T17:37:43.900Z,24.15
2016-07-13T17:38:43.906Z,24.21
2016-07-13T17:39:43.905Z,24.22
2016-07-13T17:40:43.898Z,24.24
2016-07-13T17:41:43.908Z,24.19
2016-07-13T17:42:43.908Z,24.17
2016-07-13T17:43:43.905Z,24.17
2016-07-13T17:44:43.915Z,24.22
2016-07-13T17:45:43.910Z,24.21
2016-07-13T17:46:43.908Z,24.21
2016-07-13T17:47:43.927Z,24.21
2016-07-13T17:48:44.118Z,24.17
2016-07-13T17:49:43.920Z,24.15
2016-07-13T17:50:43.915Z,24.19
2016-07-13T17:51:43.931Z,24.15
2016-07-13T17:52:43.910Z,24.22
2016-07-13T17:53:43.925Z,24.18
2016-07-13T17:54:43.920Z,24.18
2016-07-13T17:55:43.924Z,24.22
2016-07-13T17:56:43.922Z,24.22
2016-07-13T17:57:43.922Z,24.21
2016-07-13T17:58:43.923Z,24.18
2016-07-13T17:59:43.928Z,24.24
2016-07-13T18:00:43.932Z,24.21
2016-07-13T18:01:43.930Z,24.24
2016-07-13T18:02:43.928Z,24.26
2016-07-13T18:03:43.929Z,24.24
2016-07-13T18:04:43.933Z,24.21
2016-07-13T18:05:44.133Z,24.22
2016-07-13T18:06:43.936Z,24.19
2016-07-13T18:07:43.937Z,24.19
2016-07-13T18:08:43.944Z,24.26
2016-07-13T18:09:43.937Z,24.17
2016-07-13T18:10:43.947Z,24.17
2016-07-13T18:11:43.939Z,24.19
2016-07-13T18:12:44.139Z,24.15
2016-07-13T18:13:44.150Z,24.22
2016-07-13T18:14:43.947Z,24.21
2016-07-13T18:15:43.948Z,24.21
2016-07-13T18:16:44.350Z,24.21
2016-07-13T18:17:43.942Z,24.21
2016-07-13T18:18:43.947Z,24.19
2016-07-13T18:19:43.961Z,24.24
2016-07-13T18:20:43.949Z,24.18
2016-07-13T18:21:43.952Z,24.18
2016-07-13T18:22:43.954Z,24.18
2016-07-13T18:23:43.952Z,24.24
2016-07-13T18:24:43.949Z,24.19
2016-07-13T18:25:43.946Z,24.22
2016-07-13T18:26:44.157Z,24.21
2016-07-13T18:27:43.952Z,24.22
2016-07-13T18:28:43.965Z,24.15
2016-07-13T18:29:43.964Z,24.15
2016-07-13T18:30:43.959Z,24.19
2016-07-13T18:31:43.965Z,24.19
2016-07-13T18:32:43.963Z,24.18
2016-07-13T18:33:43.966Z,24.22
2016-07-13T18:34:43.963Z,24.22
2016-07-13T18:35:43.975Z,24.24
2016-07-13T18:36:43.959Z,24.15
2016-07-13T18:37:43.969Z,24.19
2016-07-13T18:38:43.978Z,24.18
2016-07-13T18:39:43.967Z,24.15
2016-07-13T18:40:43.967Z,24.14
2016-07-13T18:41:43.979Z,24.19
2016-07-13T18:42:44.175Z,24.19
2016-07-13T18:43:43.978Z,24.19
2016-07-13T18:44:43.971Z,24.17
2016-07-13T18:45:43.978Z,24.19
2016-07-13T18:46:43.975Z,24.19
2016-07-13T18:47:43.981Z,24.22
2016-07-13T18:48:43.978Z,24.11
2016-07-13T18:49:44.180Z,24.12
2016-07-13T18:50:43.983Z,24.22
2016-07-13T18:51:43.991Z,24.17
2016-07-13T18:52:44.184Z,24.17
2016-07-13T18:53:44.188Z,24.14
2016-07-13T18:54:44.177Z,24.21
2016-07-13T18:55:44.206Z,24.14
2016-07-13T18:56:43.987Z,24.11
2016-07-13T18:57:43.992Z,24.14
2016-07-13T18:58:43.991Z,24.09
2016-07-13T18:59:43.991Z,24.17
2016-07-13T19:00:43.992Z,24.17
2016-07-13T19:01:43.994Z,24.14
2016-07-13T19:02:44.199Z,24.11
2016-07-13T19:03:43.991Z,24.11
2016-07-13T19:04:43.992Z,24.11
2016-07-13T19:05:43.998Z,24.14
2016-07-13T19:06:43.995Z,24.11
2016-07-13T19:07:43.995Z,24.12
2016-07-13T19:08:44.002Z,24.11
2016-07-13T19:09:44.004Z,24.07
2016-07-13T19:10:44.007Z,24.07
2016-07-13T19:11:44.011Z,24.14
2016-07-13T19:12:44.019Z,24.08
2016-07-13T19:13:44.007Z,24.04
2016-07-13T19:14:44.007Z,24.09
2016-07-13T19:15:44.013Z,24.08
2016-07-13T19:16:44.009Z,24.12
2016-07-13T19:17:44.010Z,24.12
2016-07-13T19:18:44.014Z,24.07
2016-07-13T19:19:44.013Z,24.11
2016-07-13T19:20:44.015Z,24.12
2016-07-13T19:21:44.017Z,24.08
2016-07-13T19:22:44.011Z,24.11
2016-07-13T19:23:44.017Z,24.04
2016-07-13T19:24:44.030Z,24.07
2016-07-13T19:25:44.007Z,24.03
2016-07-13T19:26:44.016Z,24.09
2016-07-13T19:27:44.022Z,24.09
2016-07-13T19:28:44.019Z,24.03
2016-07-13T19:29:44.033Z,24.03
2016-07-13T19:30:44.025Z,24.04
2016-07-13T19:31:44.026Z,24.08
2016-07-13T19:32:44.028Z,24.11
2016-07-13T19:33:44.029Z,24.07
2016-07-13T19:34:44.027Z,24.02
2016-07-13T19:35:44.034Z,24.04
2016-07-13T19:36:44.026Z,24.11
2016-07-13T19:37:44.233Z,24.08
2016-07-13T19:38:44.027Z,24.08
2016-07-13T19:39:44.041Z,24.09
2016-07-13T19:40:44.039Z,24.03
2016-07-13T19:41:44.033Z,24.08
2016-07-13T19:42:44.038Z,24.02
2016-07-13T19:43:44.033Z,23.99
2016-07-13T19:44:44.036Z,24.03
2016-07-13T19:45:44.037Z,24.02
2016-07-13T19:46:44.036Z,23.99
2016-07-13T19:47:44.044Z,24.07
2016-07-13T19:48:44.241Z,24.02
2016-07-13T19:49:44.034Z,23.99
2016-07-13T19:50:44.048Z,24.03
2016-07-13T19:51:44.048Z,24.03
2016-07-13T19:52:44.043Z,24.03
2016-07-13T19:53:44.042Z,24.03
2016-07-13T19:54:44.051Z,24.02
2016-07-13T19:55:44.045Z,23.97
2016-07-13T19:56:44.045Z,23.93
2016-07-13T19:57:44.052Z,23.99
2016-07-13T19:58:44.051Z,24
2016-07-13T19:59:44.048Z,24
2016-07-13T20:00:44.046Z,23.96
2016-07-13T20:01:44.046Z,24.07
2016-07-13T20:02:44.052Z,24.02
2016-07-13T20:03:44.051Z,24
2016-07-13T20:04:44.053Z,24
2016-07-13T20:05:44.254Z,24
2016-07-13T20:06:44.060Z,23.97
2016-07-13T20:07:44.259Z,24
2016-07-13T20:08:44.261Z,23.94
2016-07-13T20:09:44.056Z,24
2016-07-13T20:10:44.055Z,23.96
2016-07-13T20:11:44.067Z,23.99
2016-07-13T20:12:44.067Z,23.96
2016-07-13T20:13:44.070Z,23.9
2016-07-13T20:14:44.061Z,23.93
2016-07-13T20:15:44.062Z,23.97
2016-07-13T20:16:44.067Z,23.96
2016-07-13T20:17:44.266Z,23.96
2016-07-13T20:18:44.071Z,24
2016-07-13T20:19:44.069Z,23.87
2016-07-13T20:20:44.068Z,23.89
2016-07-13T20:21:44.066Z,23.89
2016-07-13T20:22:44.067Z,23.87
2016-07-13T20:23:44.273Z,23.94
2016-07-13T20:24:44.068Z,23.85
2016-07-13T20:25:44.072Z,23.96
2016-07-13T20:26:44.274Z,23.89
2016-07-13T20:27:44.075Z,23.85
2016-07-13T20:28:44.080Z,23.84
2016-07-13T20:29:44.082Z,23.93
2016-07-13T20:30:44.117Z,23.9
2016-07-13T20:31:44.088Z,23.92
2016-07-13T20:32:44.076Z,23.92
2016-07-13T20:33:44.079Z,23.92
2016-07-13T20:34:44.077Z,23.82
2016-07-13T20:35:44.077Z,23.85
2016-07-13T20:36:44.076Z,23.82
2016-07-13T20:37:44.080Z,23.9
2016-07-13T20:38:44.081Z,23.85
2016-07-13T20:39:44.085Z,23.87
2016-07-13T20:40:44.082Z,23.92
2016-07-13T20:41:44.286Z,23.89
2016-07-13T20:42:44.082Z,23.9
2016-07-13T20:43:44.087Z,23.9
2016-07-13T20:44:44.084Z,23.87
2016-07-13T20:45:44.088Z,23.79
2016-07-13T20:46:44.086Z,23.85
2016-07-13T20:47:44.090Z,23.84
2016-07-13T20:48:44.084Z,23.79
2016-07-13T20:49:44.298Z,23.82
2016-07-13T20:50:44.097Z,23.79
2016-07-13T20:51:44.094Z,23.84
2016-07-13T20:52:44.084Z,23.85
2016-07-13T20:53:44.094Z,23.81
2016-07-13T20:54:44.095Z,23.84
2016-07-13T20:55:44.088Z,23.82
2016-07-13T20:56:44.090Z,23.82
2016-07-13T20:57:44.092Z,23.82
2016-07-13T20:58:44.100Z,23.78
2016-07-13T20:59:44.097Z,23.75
2016-07-13T21:00:44.096Z,23.77
2016-07-13T21:01:44.095Z,23.75
2016-07-13T21:02:44.105Z,23.75
2016-07-13T21:03:44.105Z,23.77
2016-07-13T21:04:44.102Z,23.71
2016-07-13T21:05:44.121Z,23.72
2016-07-13T21:06:44.114Z,23.75
2016-07-13T21:07:44.101Z,23.63
2016-07-13T21:08:44.107Z,23.71
2016-07-13T21:09:44.105Z,23.71
2016-07-13T21:10:44.309Z,23.67
2016-07-13T21:11:44.306Z,23.7
2016-07-13T21:12:44.106Z,23.66
2016-07-13T21:13:44.104Z,23.75
2016-07-13T21:14:44.105Z,23.67
2016-07-13T21:15:44.105Z,23.75
2016-07-13T21:16:44.111Z,23.71
2016-07-13T21:17:44.110Z,23.63
2016-07-13T21:18:44.111Z,23.74
2016-07-13T21:19:44.114Z,23.71
2016-07-13T21:20:44.110Z,23.63
2016-07-13T21:21:44.118Z,23.63
2016-07-13T21:22:44.314Z,23.66
2016-07-13T21:23:44.112Z,23.62
2016-07-13T21:24:44.109Z,23.6
2016-07-13T21:25:44.113Z,23.59
2016-07-13T21:26:44.112Z,23.6
2016-07-13T21:27:44.117Z,23.62
2016-07-13T21:28:44.116Z,23.6
2016-07-13T21:29:44.119Z,23.6
2016-07-13T21:30:44.376Z,23.53
2016-07-13T21:31:44.111Z,23.52
2016-07-13T21:32:44.126Z,23.63
2016-07-13T21:33:44.116Z,23.62
2016-07-13T21:34:44.124Z,23.6
2016-07-13T21:35:44.118Z,23.55
2016-07-13T21:36:44.323Z,23.52
2016-07-13T21:37:44.124Z,23.53
2016-07-13T21:38:44.128Z,23.56
2016-07-13T21:39:44.321Z,23.45
2016-07-13T21:40:44.119Z,23.59
2016-07-13T21:41:44.118Z,23.53
2016-07-13T21:42:44.119Z,23.52
2016-07-13T21:43:44.118Z,23.53
2016-07-13T21:44:44.123Z,23.56
2016-07-13T21:45:44.128Z,23.52
2016-07-13T21:46:44.126Z,23.66
2016-07-13T21:47:44.126Z,23.57
2016-07-13T21:48:44.124Z,23.55
2016-07-13T21:49:44.126Z,23.53
2016-07-13T21:50:44.327Z,23.52
2016-07-13T21:51:44.129Z,23.55
2016-07-13T21:52:44.138Z,23.6
2016-07-13T21:53:44.126Z,23.59
2016-07-13T21:54:44.122Z,23.59
2016-07-13T21:55:44.122Z,23.55
2016-07-13T21:56:44.133Z,23.55
2016-07-13T21:57:44.135Z,23.5
2016-07-13T21:58:44.133Z,23.48
2016-07-13T21:59:44.128Z,23.53
2016-07-13T22:00:44.131Z,23.47
2016-07-13T22:01:44.130Z,23.47
2016-07-13T22:02:44.133Z,23.47
2016-07-13T22:03:44.135Z,23.45
2016-07-13T22:04:44.139Z,23.45
2016-07-13T22:05:44.136Z,23.5
2016-07-13T22:06:44.133Z,23.45
2016-07-13T22:07:44.150Z,23.38
2016-07-13T22:08:44.133Z,23.38
2016-07-13T22:09:44.142Z,23.45
2016-07-13T22:10:44.138Z,23.37
2016-07-13T22:11:44.134Z,23.41
2016-07-13T22:12:44.142Z,23.38
2016-07-13T22:13:44.128Z,23.38
2016-07-13T22:14:44.139Z,23.44
2016-07-13T22:15:44.346Z,23.41
2016-07-13T22:16:44.136Z,23.42
2016-07-13T22:17:44.138Z,23.38
2016-07-13T22:18:44.149Z,23.42
2016-07-13T22:19:44.148Z,23.38
2016-07-13T22:20:44.143Z,23.38
2016-07-13T22:21:44.145Z,23.38
2016-07-13T22:22:44.140Z,23.42
2016-07-13T22:23:44.149Z,23.34
2016-07-13T22:24:44.347Z,23.37
2016-07-13T22:25:44.144Z,23.38
2016-07-13T22:26:44.141Z,23.38
2016-07-13T22:27:44.153Z,23.37
2016-07-13T22:28:44.347Z,23.37
2016-07-13T22:29:44.142Z,23.32
2016-07-13T22:30:44.600Z,23.25
2016-07-13T22:31:44.145Z,23.25
2016-07-13T22:32:44.147Z,23.37
2016-07-13T22:33:44.150Z,23.34
2016-07-13T22:34:44.152Z,23.26
2016-07-13T22:35:44.149Z,23.22
2016-07-13T22:36:44.151Z,23.28
2016-07-13T22:37:44.149Z,23.26
2016-07-13T22:38:44.148Z,23.28
2016-07-13T22:39:44.147Z,23.26
2016-07-13T22:40:44.150Z,23.25
2016-07-13T22:41:44.155Z,23.21
2016-07-13T22:42:44.151Z,23.28
2016-07-13T22:43:44.146Z,23.29
2016-07-13T22:44:44.155Z,23.26
2016-07-13T22:45:44.155Z,23.26
2016-07-13T22:46:44.160Z,23.28
2016-07-13T22:47:44.149Z,23.19
2016-07-13T22:48:44.152Z,23.25
2016-07-13T22:49:44.150Z,23.16
2016-07-13T22:50:44.367Z,23.24
2016-07-13T22:51:44.153Z,23.22
2016-07-13T22:52:44.168Z,23.14
2016-07-13T22:53:44.159Z,23.16
2016-07-13T22:54:44.153Z,23.16
2016-07-13T22:55:44.157Z,23.21
2016-07-13T22:56:44.148Z,23.16
2016-07-13T22:57:44.151Z,23.14
2016-07-13T22:58:44.153Z,23.16
2016-07-13T22:59:44.156Z,23.16
2016-07-13T23:00:44.157Z,23.16
2016-07-13T23:01:44.151Z,23.14
2016-07-13T23:02:44.155Z,23.18
2016-07-13T23:03:44.161Z,23.14
2016-07-13T23:04:44.164Z,23.14
2016-07-13T23:05:44.158Z,23.18
2016-07-13T23:06:44.161Z,23.19
2016-07-13T23:07:44.156Z,23.18
2016-07-13T23:08:44.159Z,23.15
2016-07-13T23:09:44.157Z,23.15
2016-07-13T23:10:44.158Z,23.15
2016-07-13T23:11:44.154Z,23.18
2016-07-13T23:12:44.158Z,23.14
2016-07-13T23:13:44.159Z,23.12
2016-07-13T23:14:44.158Z,23.09
2016-07-13T23:15:44.169Z,23.18
2016-07-13T23:16:44.158Z,23.12
2016-07-13T23:17:44.171Z,23.1
2016-07-13T23:18:44.365Z,23.15
2016-07-13T23:19:44.363Z,23.12
2016-07-13T23:20:44.163Z,23.07
2016-07-13T23:21:44.359Z,23.07
2016-07-13T23:22:44.163Z,23.06
2016-07-13T23:23:44.159Z,23.09
2016-07-13T23:24:44.167Z,23.09
2016-07-13T23:25:44.165Z,23.04
2016-07-13T23:26:44.167Z,23.09
2016-07-13T23:27:44.164Z,23.09
2016-07-13T23:28:44.159Z,23.03
2016-07-13T23:29:44.160Z,23.1
2016-07-13T23:30:44.226Z,23.12
2016-07-13T23:31:44.156Z,23.01
2016-07-13T23:32:44.165Z,23.04
2016-07-13T23:33:44.370Z,23.07
2016-07-13T23:34:44.164Z,23.12
2016-07-13T23:35:44.178Z,23.01
2016-07-13T23:36:44.172Z,23
2016-07-13T23:37:44.167Z,23.01
2016-07-13T23:38:44.176Z,23.01
2016-07-13T23:39:44.162Z,23.01
2016-07-13T23:40:44.162Z,22.96
2016-07-13T23:41:44.168Z,22.94
2016-07-13T23:42:44.170Z,22.97
2016-07-13T23:43:44.370Z,22.92
2016-07-13T23:44:44.169Z,22.99
2016-07-13T23:45:44.167Z,22.97
2016-07-13T23:46:44.168Z,22.97
2016-07-13T23:47:44.168Z,22.94
2016-07-13T23:48:44.162Z,22.91
2016-07-13T23:49:44.167Z,22.99
2016-07-13T23:50:44.172Z,22.94
2016-07-13T23:51:44.167Z,22.97
2016-07-13T23:52:44.173Z,22.99
2016-07-13T23:53:44.366Z,22.96
2016-07-13T23:54:44.162Z,22.96
2016-07-13T23:55:44.169Z,22.97
2016-07-13T23:56:44.163Z,22.97
2016-07-13T23:57:44.169Z,22.91
2016-07-13T23:58:44.172Z,22.86
2016-07-13T23:59:44.168Z,23
